Log in Register

Login to your account

Username *
Password *
Remember Me

Create an account

Fields marked with an asterisk (*) are required.
Name *
Username *
Password *
Verify password *
Email *
Verify email *

L'aéroclub a repri son activité en intégralité.

 

Le secrétariat vous accueille dans le respect des gestes barrières selon les horaires définis dans la rubrique contact https://www.aeroclub-savoie.com/index.php?option=com_content&view=article&id=5&Itemid=123&lang=fr

 

Les vols découverte peuvent à nouveau être effectués, sous réserve de présentation d'un pass sanitaire valide pour les passagers majeurs, et du port du masque en tous temps à partir de 11 ans. Contacter le secrétariat pour prendre rdv, minimum 4 jour à l'avance. Les vols peuvent être effectués tous les jours sous réserve de disponibilité avion, pilote et météo.

Vous avez un bon cadeau ayant expiré durant les confinements, n'hésitez pas à nous contacter.

Merci

Nous contacter

 Téléphone : +33 (0)4 79 54 41 81

Coordonnées détaillées et accès : cliquez ici

 
LFLB °C
    Ferienhaus Ostsee
[source: ADDS]
METAR
LFLB 292130Z AUTO 02009KT 9999 BKN056 02/M03 Q1021 =
TAF LFLB 291400Z 2915/3015 34006KT 9999 BKN035 BECMG 2918/2921 VRB02KT BECMG 2922/3002 SCT035 PROB40 TEMPO 3003/3007 3000 BR
TAF
TAF LFLB 291400Z 2915/3015 34006KT 9999 BKN035 BECMG 2918/2921 VRB02KT BECMG 2922/3002 SCT035 PROB40 TEMPO 3003/3007 3000 BR =
SR / SS: 06:54 / 15:55 UTC (Lever/Coucher du soleil le 2021-11-29)
JSN Boot template designed by JoomlaShine.com